| time (UTC) | temp F | wind direction | speed MPH | gust MPH | rain 1hr in | rain 24hr in | rain mn in | humidity % | barometer mb |
| 20260905193805 | 64 | 242 | 0.0 | 0.0 | 0.00 | 0.00 | 0.00 | 71 | 1024.1 |
| 20260905193304 | 64 | 242 | 0.0 | 0.0 | 0.00 | 0.00 | 0.00 | 70 | 1024.1 |
| 20260905192804 | 64 | 242 | 0.0 | 0.0 | 0.00 | 0.00 | 0.00 | 70 | 1024.1 |
| 20260905191804 | 65 | 242 | 0.0 | 0.0 | 0.00 | 0.00 | 0.00 | 69 | 1024.1 |
| 20260905191304 | 65 | 242 | 0.0 | 0.0 | 0.00 | 0.00 | 0.00 | 68 | 1024.0 |
| 20260905190804 | 65 | 242 | 0.0 | 0.0 | 0.00 | 0.00 | 0.00 | 68 | 1024.0 |
| 20260905190304 | 65 | 238 | 0.0 | 3.0 | 0.00 | 0.00 | 0.00 | 68 | 1024.0 |
| 20260905185804 | 65 | 248 | 0.0 | 1.0 | 0.00 | 0.00 | 0.00 | 68 | 1024.0 |
| 20260905185306 | 65 | 243 | 2.0 | 6.0 | 0.00 | 0.00 | 0.00 | 67 | 1024.0 |
| 20260905183304 | 66 | 254 | 1.0 | 3.0 | 0.00 | 0.00 | 0.00 | 68 | 1024.0 |
| 20260905182306 | 66 | 233 | 1.0 | 7.0 | 0.00 | 0.00 | 0.00 | 67 | 1024.0 |
| 20260905181804 | 66 | 239 | 0.0 | 1.0 | 0.00 | 0.00 | 0.00 | 66 | 1024.1 |
| 20260905180804 | 67 | 225 | 1.0 | 3.0 | 0.00 | 0.00 | 0.00 | 65 | 1024.1 |
| 20260905180304 | 67 | 244 | 1.0 | 5.0 | 0.00 | 0.00 | 0.00 | 65 | 1024.0 |
| 20260905175804 | 68 | 229 | 1.0 | 5.0 | 0.00 | 0.00 | 0.00 | 64 | 1024.0 |
| 20260905175306 | 68 | 254 | 2.0 | 6.0 | 0.00 | 0.00 | 0.00 | 63 | 1024.0 |
| 20260905174804 | 69 | 277 | 0.0 | 3.0 | 0.00 | 0.00 | 0.00 | 63 | 1024.0 |
| 20260905174304 | 68 | 267 | 1.0 | 3.0 | 0.00 | 0.00 | 0.00 | 64 | 1023.9 |
| 20260905173804 | 68 | 227 | 0.0 | 6.0 | 0.00 | 0.00 | 0.00 | 63 | 1024.0 |
| 20260905172804 | 68 | 246 | 3.0 | 7.0 | 0.00 | 0.00 | 0.00 | 63 | 1023.9 |
| 20260905172305 | 68 | 274 | 0.0 | 1.0 | 0.00 | 0.00 | 0.00 | 62 | 1023.9 |
| 20260905171804 | 69 | 241 | 1.0 | 9.0 | 0.00 | 0.00 | 0.00 | 62 | 1024.0 |
| 20260905171304 | 69 | 236 | 0.0 | 1.0 | 0.00 | 0.00 | 0.00 | 61 | 1024.0 |
| 20260905170304 | 69 | 248 | 1.0 | 5.0 | 0.00 | 0.00 | 0.00 | 62 | 1023.9 |
| 20260905165804 | 69 | 272 | 0.0 | 3.0 | 0.00 | 0.00 | 0.00 | 62 | 1023.9 |
| 20260905165306 | 69 | 270 | 2.0 | 7.0 | 0.00 | 0.00 | 0.00 | 62 | 1023.8 |
| 20260905164804 | 69 | 244 | 0.0 | 1.0 | 0.00 | 0.00 | 0.00 | 60 | 1023.8 |
| 20260905164304 | 69 | 273 | 1.0 | 6.0 | 0.00 | 0.00 | 0.00 | 61 | 1023.8 |
| 20260905163804 | 70 | 258 | 0.0 | 6.0 | 0.00 | 0.00 | 0.00 | 61 | 1024.1 |
| 20260905163304 | 70 | 258 | 0.0 | 6.0 | 0.00 | 0.00 | 0.00 | 61 | 1024.1 |
| 20260905162804 | 70 | 258 | 0.0 | 6.0 | 0.00 | 0.00 | 0.00 | 61 | 1024.1 |
| 20260905162306 | 70 | 258 | 0.0 | 6.0 | 0.00 | 0.00 | 0.00 | 61 | 1024.1 |
| 20260905161804 | 70 | 258 | 0.0 | 6.0 | 0.00 | 0.00 | 0.00 | 61 | 1024.1 |
| 20260905160805 | 70 | 258 | 0.0 | 6.0 | 0.00 | 0.00 | 0.00 | 61 | 1024.1 |
| 20260905155306 | 70 | 258 | 0.0 | 6.0 | 0.00 | 0.00 | 0.00 | 61 | 1024.1 |
| 20260905154305 | 70 | 258 | 0.0 | 6.0 | 0.00 | 0.00 | 0.00 | 61 | 1024.1 |
| 20260905153304 | 70 | 258 | 0.0 | 6.0 | 0.00 | 0.00 | 0.00 | 61 | 1024.1 |
| 20260905152804 | 70 | 258 | 0.0 | 6.0 | 0.00 | 0.00 | 0.00 | 61 | 1024.1 |
| 20260905152306 | 70 | 258 | 0.0 | 6.0 | 0.00 | 0.00 | 0.00 | 61 | 1024.1 |
| 20260905151304 | 69 | 257 | 2.0 | 5.0 | 0.00 | 0.00 | 0.00 | 61 | 1024.2 |
| 20260905150304 | 69 | 241 | 5.0 | 13.0 | 0.00 | 0.00 | 0.00 | 60 | 1024.3 |
| 20260905145804 | 69 | 239 | 1.0 | 9.0 | 0.00 | 0.00 | 0.00 | 61 | 1024.3 |
| 20260905145306 | 69 | 223 | 1.0 | 5.0 | 0.00 | 0.00 | 0.00 | 60 | 1024.3 |
| 20260905144304 | 69 | 244 | 2.0 | 10.0 | 0.00 | 0.00 | 0.00 | 60 | 1024.4 |
| 20260905143804 | 69 | 249 | 4.0 | 13.0 | 0.00 | 0.00 | 0.00 | 60 | 1024.3 |
| 20260905143304 | 69 | 265 | 4.0 | 10.0 | 0.00 | 0.00 | 0.00 | 60 | 1024.4 |
| 20260905142804 | 69 | 231 | 5.0 | 12.0 | 0.00 | 0.00 | 0.00 | 60 | 1024.4 |
| 20260905141804 | 69 | 259 | 2.0 | 6.0 | 0.00 | 0.00 | 0.00 | 61 | 1024.4 |
| 20260905141304 | 69 | 237 | 1.0 | 7.0 | 0.00 | 0.00 | 0.00 | 63 | 1024.5 |
| 20260905140304 | 68 | 264 | 6.0 | 13.0 | 0.00 | 0.00 | 0.00 | 62 | 1024.6 |
| 20260905135804 | 68 | 235 | 6.0 | 13.0 | 0.00 | 0.00 | 0.00 | 62 | 1024.6 |
| 20260905135306 | 68 | 259 | 2.0 | 9.0 | 0.00 | 0.00 | 0.00 | 62 | 1024.6 |
| 20260905134804 | 68 | 283 | 2.0 | 10.0 | 0.00 | 0.00 | 0.00 | 63 | 1024.6 |
| 20260905134304 | 68 | 235 | 3.0 | 13.0 | 0.00 | 0.00 | 0.00 | 62 | 1024.7 |
| 20260905133804 | 68 | 251 | 7.0 | 16.0 | 0.00 | 0.00 | 0.00 | 62 | 1024.8 |
| 20260905133304 | 68 | 240 | 7.0 | 14.0 | 0.00 | 0.00 | 0.00 | 62 | 1024.8 |
| 20260905132306 | 68 | 243 | 6.0 | 15.0 | 0.00 | 0.00 | 0.00 | 64 | 1024.5 |
| 20260905131805 | 69 | 243 | 4.0 | 12.0 | 0.00 | 0.00 | 0.00 | 63 | 1024.5 |
| 20260905131304 | 68 | 242 | 5.0 | 16.0 | 0.00 | 0.00 | 0.00 | 64 | 1024.5 |
| 20260905130804 | 69 | 260 | 5.0 | 12.0 | 0.00 | 0.00 | 0.00 | 64 | 1024.4 |
| 20260905130304 | 68 | 248 | 6.0 | 12.0 | 0.00 | 0.00 | 0.00 | 63 | 1024.5 |
| 20260905125804 | 68 | 255 | 7.0 | 15.0 | 0.00 | 0.00 | 0.00 | 62 | 1024.3 |
| 20260905125306 | 69 | 252 | 5.0 | 12.0 | 0.00 | 0.00 | 0.00 | 62 | 1024.3 |
| 20260905124804 | 69 | 253 | 5.0 | 13.0 | 0.00 | 0.00 | 0.00 | 62 | 1024.3 |
| 20260905124304 | 69 | 252 | 3.0 | 14.0 | 0.00 | 0.00 | 0.00 | 63 | 1024.3 |
| 20260905123804 | 69 | 247 | 3.0 | 12.0 | 0.00 | 0.00 | 0.00 | 62 | 1024.3 |
| 20260905123304 | 68 | 263 | 5.0 | 13.0 | 0.00 | 0.00 | 0.00 | 61 | 1024.3 |
| 20260905122306 | 68 | 253 | 1.0 | 17.0 | 0.00 | 0.00 | 0.00 | 61 | 1024.2 |
| 20260905121804 | 68 | 278 | 3.0 | 12.0 | 0.00 | 0.00 | 0.00 | 61 | 1024.3 |
| 20260905121303 | 68 | 229 | 4.0 | 7.0 | 0.00 | 0.00 | 0.00 | 60 | 1024.2 |
| 20260905120804 | 68 | 232 | 3.0 | 12.0 | 0.00 | 0.00 | 0.00 | 60 | 1024.2 |
| 20260905120304 | 68 | 248 | 2.0 | 9.0 | 0.00 | 0.00 | 0.00 | 60 | 1024.1 |
| 20260905114804 | 68 | 234 | 4.0 | 10.0 | 0.00 | 0.00 | 0.00 | 60 | 1024.0 |
| 20260905114304 | 67 | 246 | 2.0 | 10.0 | 0.00 | 0.00 | 0.00 | 61 | 1024.1 |
| 20260905113304 | 67 | 238 | 4.0 | 10.0 | 0.00 | 0.00 | 0.00 | 62 | 1024.0 |
| 20260905112305 | 67 | 235 | 6.0 | 12.0 | 0.00 | 0.00 | 0.00 | 61 | 1024.1 |
| 20260905111804 | 67 | 262 | 3.0 | 10.0 | 0.00 | 0.00 | 0.00 | 61 | 1024.2 |
| 20260905111304 | 67 | 251 | 5.0 | 12.0 | 0.00 | 0.00 | 0.00 | 62 | 1024.2 |
| 20260905110304 | 66 | 264 | 0.0 | 6.0 | 0.00 | 0.00 | 0.00 | 66 | 1024.3 |
| 20260905105804 | 65 | 302 | 0.0 | 3.0 | 0.00 | 0.00 | 0.00 | 66 | 1024.3 |
| 20260905105306 | 65 | 241 | 0.0 | 3.0 | 0.00 | 0.00 | 0.00 | 66 | 1024.3 |
| 20260905104804 | 65 | 232 | 1.0 | 7.0 | 0.00 | 0.00 | 0.00 | 65 | 1024.3 |
| 20260905104304 | 66 | 246 | 1.0 | 3.0 | 0.00 | 0.00 | 0.00 | 64 | 1024.4 |
| 20260905103804 | 66 | 247 | 1.0 | 6.0 | 0.00 | 0.00 | 0.00 | 66 | 1024.4 |
| 20260905103304 | 66 | 287 | 0.0 | 1.0 | 0.00 | 0.00 | 0.00 | 67 | 1024.4 |
| 20260905102804 | 66 | 281 | 0.0 | 0.0 | 0.00 | 0.00 | 0.00 | 67 | 1024.4 |
| 20260905102306 | 65 | 273 | 0.0 | 0.0 | 0.00 | 0.00 | 0.00 | 68 | 1024.4 |
| 20260905101804 | 65 | 273 | 0.0 | 3.0 | 0.00 | 0.00 | 0.00 | 68 | 1024.4 |
| 20260905101304 | 65 | 295 | 1.0 | 3.0 | 0.00 | 0.00 | 0.00 | 68 | 1024.3 |
| 20260905100804 | 65 | 276 | 1.0 | 3.0 | 0.00 | 0.00 | 0.00 | 69 | 1024.3 |
| 20260905100304 | 65 | 301 | 0.0 | 5.0 | 0.00 | 0.00 | 0.00 | 69 | 1024.4 |
| 20260905095306 | 64 | 313 | 1.0 | 5.0 | 0.00 | 0.00 | 0.00 | 71 | 1024.4 |
| 20260905094304 | 64 | 278 | 1.0 | 8.0 | 0.00 | 0.00 | 0.00 | 72 | 1024.2 |
| 20260905093804 | 64 | 272 | 0.0 | 3.0 | 0.00 | 0.00 | 0.00 | 72 | 1024.2 |
| 20260905093303 | 64 | 273 | 3.0 | 5.0 | 0.00 | 0.00 | 0.00 | 72 | 1024.1 |
| 20260905092803 | 63 | 274 | 1.0 | 5.0 | 0.00 | 0.00 | 0.00 | 72 | 1024.1 |
| 20260905092306 | 63 | 276 | 2.0 | 5.0 | 0.00 | 0.00 | 0.00 | 72 | 1024.0 |
| 20260905091803 | 63 | 280 | 2.0 | 5.0 | 0.00 | 0.00 | 0.00 | 71 | 1023.9 |
| 20260905091304 | 63 | 294 | 2.0 | 7.0 | 0.00 | 0.00 | 0.00 | 71 | 1023.9 |
| 20260905090804 | 63 | 266 | 1.0 | 5.0 | 0.00 | 0.00 | 0.00 | 73 | 1023.9 |
| 20260905090303 | 63 | 276 | 4.0 | 7.0 | 0.00 | 0.00 | 0.00 | 72 | 1023.8 |
| 20260905085804 | 63 | 287 | 2.0 | 7.0 | 0.00 | 0.00 | 0.00 | 73 | 1023.8 |
| 20260905085306 | 63 | 271 | 1.0 | 6.0 | 0.00 | 0.00 | 0.00 | 72 | 1023.7 |
| 20260905084804 | 63 | 332 | 1.0 | 5.0 | 0.00 | 0.00 | 0.00 | 72 | 1023.7 |
| 20260905084304 | 63 | 265 | 2.0 | 7.0 | 0.00 | 0.00 | 0.00 | 72 | 1023.7 |
| 20260905083804 | 63 | 286 | 4.0 | 10.0 | 0.00 | 0.00 | 0.00 | 72 | 1023.6 |
| 20260905083304 | 63 | 271 | 0.0 | 6.0 | 0.00 | 0.00 | 0.00 | 73 | 1023.5 |
| 20260905082804 | 63 | 270 | 1.0 | 10.0 | 0.00 | 0.00 | 0.00 | 73 | 1023.5 |
| 20260905082307 | 62 | 293 | 2.0 | 6.0 | 0.00 | 0.00 | 0.00 | 73 | 1023.4 |
| 20260905081805 | 62 | 275 | 3.0 | 10.0 | 0.00 | 0.00 | 0.00 | 72 | 1023.4 |
| 20260905081304 | 62 | 282 | 2.0 | 7.0 | 0.00 | 0.00 | 0.00 | 73 | 1023.3 |
| 20260905080804 | 62 | 262 | 1.0 | 6.0 | 0.00 | 0.00 | 0.00 | 73 | 1023.3 |
| 20260905080305 | 62 | 277 | 0.0 | 6.0 | 0.00 | 0.00 | 0.00 | 73 | 1023.2 |
| 20260905075804 | 62 | 283 | 1.0 | 7.0 | 0.00 | 0.00 | 0.00 | 73 | 1023.2 |
| 20260905075306 | 62 | 274 | 0.0 | 2.0 | 0.00 | 0.00 | 0.00 | 74 | 1023.1 |
| 20260905074304 | 62 | 291 | 1.0 | 3.0 | 0.00 | 0.00 | 0.00 | 73 | 1023.1 |
| 20260905073804 | 62 | 272 | 1.0 | 3.0 | 0.00 | 0.00 | 0.00 | 74 | 1023.0 |
| 20260905073303 | 62 | 255 | 2.0 | 6.0 | 0.00 | 0.00 | 0.00 | 74 | 1023.0 |
| 20260905072804 | 62 | 266 | 0.0 | 3.0 | 0.00 | 0.00 | 0.00 | 74 | 1023.0 |
| 20260905071804 | 61 | 276 | 0.0 | 2.0 | 0.00 | 0.00 | 0.00 | 75 | 1022.9 |
| 20260905071304 | 61 | 302 | 0.0 | 3.0 | 0.00 | 0.00 | 0.00 | 75 | 1022.9 |
| 20260905070804 | 61 | 258 | 2.0 | 5.0 | 0.00 | 0.00 | 0.00 | 75 | 1022.8 |
| 20260905070304 | 61 | 275 | 0.0 | 1.0 | 0.00 | 0.00 | 0.00 | 76 | 1022.8 |
| 20260905065804 | 61 | 242 | 0.0 | 5.0 | 0.00 | 0.00 | 0.00 | 76 | 1022.7 |
| 20260905065306 | 60 | 253 | 0.0 | 3.0 | 0.00 | 0.00 | 0.00 | 76 | 1022.7 |
| 20260905064804 | 60 | 257 | 0.0 | 1.0 | 0.00 | 0.00 | 0.00 | 77 | 1022.7 |
| 20260905064304 | 60 | 287 | 0.0 | 9.0 | 0.00 | 0.00 | 0.00 | 76 | 1022.6 |
| 20260905063804 | 60 | 276 | 2.0 | 10.0 | 0.00 | 0.00 | 0.00 | 77 | 1022.6 |
| 20260905063303 | 60 | 264 | 1.0 | 9.0 | 0.00 | 0.00 | 0.00 | 78 | 1022.5 |
| 20260905062803 | 60 | 277 | 2.0 | 5.0 | 0.00 | 0.00 | 0.00 | 78 | 1022.4 |
| 20260905061304 | 60 | 284 | 2.0 | 7.0 | 0.00 | 0.00 | 0.00 | 79 | 1022.4 |
| 20260905060804 | 60 | 277 | 0.0 | 3.0 | 0.00 | 0.00 | 0.00 | 79 | 1022.4 |
| 20260905060303 | 60 | 282 | 2.0 | 6.0 | 0.00 | 0.00 | 0.00 | 79 | 1022.3 |
| 20260905055803 | 59 | 275 | 1.0 | 9.0 | 0.00 | 0.00 | 0.00 | 79 | 1022.2 |
| 20260905055306 | 59 | 270 | 1.0 | 3.0 | 0.00 | 0.00 | 0.00 | 79 | 1022.1 |
| 20260905054804 | 59 | 239 | 0.0 | 2.0 | 0.00 | 0.01 | 0.00 | 79 | 1022.0 |
| 20260905054304 | 59 | 272 | 0.0 | 1.0 | 0.00 | 0.01 | 0.00 | 78 | 1021.9 |
| 20260905053804 | 60 | 280 | 3.0 | 7.0 | 0.00 | 0.01 | 0.00 | 78 | 1021.9 |
| 20260905052804 | 59 | 279 | 2.0 | 6.0 | 0.00 | 0.02 | 0.00 | 78 | 1021.8 |
| 20260905052306 | 60 | 289 | 0.0 | 5.0 | 0.00 | 0.02 | 0.00 | 78 | 1021.8 |
| 20260905051804 | 60 | 298 | 2.0 | 5.0 | 0.00 | 0.02 | 0.00 | 78 | 1021.7 |
| 20260905051304 | 60 | 274 | 0.0 | 2.0 | 0.00 | 0.02 | 0.00 | 77 | 1021.7 |
| 20260905050804 | 60 | 241 | 0.0 | 6.0 | 0.00 | 0.02 | 0.00 | 77 | 1021.6 |
| 20260905050304 | 60 | 283 | 0.0 | 6.0 | 0.00 | 0.02 | 0.00 | 77 | 1021.6 |
| 20260905045803 | 60 | 270 | 0.0 | 6.0 | 0.00 | 0.02 | 0.00 | 77 | 1021.4 |
| 20260905045305 | 60 | 267 | 0.0 | 1.0 | 0.00 | 0.03 | 0.00 | 77 | 1021.4 |
| 20260905044804 | 60 | 271 | 0.0 | 0.0 | 0.00 | 0.04 | 0.00 | 77 | 1021.4 |
| 20260905043304 | 60 | 272 | 0.0 | 0.0 | 0.00 | 0.06 | 0.00 | 78 | 1021.2 |
| 20260905042307 | 60 | 268 | 3.0 | 7.0 | 0.00 | 0.07 | 0.00 | 77 | 1021.2 |
| 20260905041803 | 60 | 269 | 3.0 | 10.0 | 0.00 | 0.07 | 0.00 | 77 | 1021.2 |
| 20260905040804 | 60 | 272 | 0.0 | 2.0 | 0.00 | 0.08 | 0.00 | 77 | 1021.1 |
| 20260905040303 | 60 | 269 | 2.0 | 5.0 | 0.00 | 0.08 | 0.00 | 77 | 1021.0 |
| 20260905035803 | 60 | 273 | 5.0 | 8.0 | 0.00 | 0.08 | 0.00 | 77 | 1020.9 |
| 20260905035306 | 60 | 290 | 3.0 | 8.0 | 0.00 | 0.08 | 0.00 | 78 | 1020.8 |
| 20260905034804 | 60 | 262 | 3.0 | 6.0 | 0.00 | 0.08 | 0.00 | 78 | 1020.8 |
| 20260905033804 | 60 | 266 | 1.0 | 5.0 | 0.00 | 0.08 | 0.00 | 78 | 1020.8 |
| 20260905033304 | 60 | 272 | 2.0 | 6.0 | 0.00 | 0.08 | 0.00 | 78 | 1020.7 |
| 20260905032804 | 60 | 282 | 0.0 | 5.0 | 0.00 | 0.08 | 0.00 | 78 | 1020.8 |
| 20260905032306 | 60 | 274 | 2.0 | 8.0 | 0.00 | 0.08 | 0.00 | 78 | 1020.8 |
| 20260905031804 | 60 | 277 | 1.0 | 8.0 | 0.00 | 0.08 | 0.00 | 78 | 1020.6 |
| 20260905031304 | 60 | 274 | 1.0 | 7.0 | 0.00 | 0.08 | 0.00 | 78 | 1020.5 |
| 20260905030804 | 61 | 275 | 4.0 | 9.0 | 0.00 | 0.08 | 0.00 | 78 | 1020.5 |
| 20260905030303 | 61 | 264 | 0.0 | 3.0 | 0.00 | 0.08 | 0.00 | 78 | 1020.4 |
| 20260905025803 | 61 | 276 | 4.0 | 12.0 | 0.00 | 0.08 | 0.00 | 78 | 1020.4 |
| 20260905025306 | 61 | 271 | 0.0 | 7.0 | 0.00 | 0.08 | 0.00 | 78 | 1020.4 |
| 20260905024804 | 61 | 278 | 3.0 | 9.0 | 0.00 | 0.08 | 0.00 | 78 | 1020.4 |
| 20260905024303 | 61 | 274 | 2.0 | 9.0 | 0.00 | 0.08 | 0.00 | 78 | 1020.4 |
| 20260905023303 | 61 | 276 | 3.0 | 10.0 | 0.00 | 0.08 | 0.00 | 78 | 1020.3 |
| 20260905022804 | 61 | 274 | 3.0 | 10.0 | 0.00 | 0.08 | 0.00 | 78 | 1020.3 |
| 20260905022306 | 61 | 275 | 3.0 | 9.0 | 0.00 | 0.08 | 0.00 | 79 | 1020.3 |
| 20260905021804 | 61 | 271 | 3.0 | 10.0 | 0.00 | 0.08 | 0.00 | 79 | 1020.2 |
| 20260905021304 | 61 | 280 | 5.0 | 13.0 | 0.00 | 0.08 | 0.00 | 80 | 1020.2 |
| 20260905020304 | 61 | 279 | 1.0 | 8.0 | 0.00 | 0.08 | 0.00 | 79 | 1020.1 |
| 20260905015804 | 61 | 279 | 2.0 | 10.0 | 0.00 | 0.08 | 0.00 | 79 | 1020.1 |
| 20260905015306 | 61 | 287 | 2.0 | 12.0 | 0.00 | 0.08 | 0.00 | 80 | 1020.0 |
| 20260905014803 | 61 | 278 | 3.0 | 10.0 | 0.00 | 0.08 | 0.00 | 80 | 1019.9 |
| 20260905014304 | 61 | 271 | 3.0 | 12.0 | 0.00 | 0.08 | 0.00 | 80 | 1019.9 |
| 20260905013804 | 61 | 267 | 3.0 | 9.0 | 0.00 | 0.08 | 0.00 | 80 | 1019.9 |
| 20260905013304 | 61 | 300 | 3.0 | 12.0 | 0.00 | 0.08 | 0.00 | 80 | 1019.8 |
| 20260905012804 | 61 | 268 | 0.0 | 9.0 | 0.00 | 0.08 | 0.00 | 80 | 1019.8 |
| 20260905012306 | 61 | 256 | 1.0 | 9.0 | 0.00 | 0.09 | 0.00 | 81 | 1019.8 |
| 20260905011804 | 61 | 264 | 3.0 | 9.0 | 0.00 | 0.09 | 0.00 | 81 | 1019.9 |
| 20260905011303 | 61 | 274 | 3.0 | 8.0 | 0.00 | 0.09 | 0.00 | 81 | 1019.8 |
| 20260905010304 | 61 | 260 | 3.0 | 7.0 | 0.00 | 0.09 | 0.00 | 81 | 1019.7 |
| 20260905005804 | 61 | 269 | 3.0 | 10.0 | 0.00 | 0.09 | 0.00 | 81 | 1019.7 |
| 20260905005306 | 61 | 268 | 5.0 | 12.0 | 0.00 | 0.09 | 0.00 | 81 | 1019.8 |
| 20260905004803 | 61 | 267 | 5.0 | 13.0 | 0.00 | 0.09 | 0.00 | 81 | 1019.8 |
| 20260905004304 | 61 | 271 | 3.0 | 6.0 | 0.00 | 0.09 | 0.00 | 82 | 1019.8 |
| 20260905003804 | 61 | 268 | 2.0 | 9.0 | 0.00 | 0.09 | 0.00 | 82 | 1019.8 |
| 20260905003304 | 61 | 273 | 3.0 | 10.0 | 0.00 | 0.09 | 0.00 | 82 | 1019.8 |
| 20260905002804 | 61 | 271 | 3.0 | 10.0 | 0.00 | 0.09 | 0.00 | 81 | 1019.7 |
| 20260905001304 | 62 | 268 | 4.0 | 8.0 | 0.00 | 0.09 | 0.00 | 82 | 1019.6 |
| 20260905000804 | 61 | 253 | 1.0 | 3.0 | 0.00 | 0.09 | 0.00 | 81 | 1019.6 |
| 20260905000304 | 61 | 264 | 3.0 | 8.0 | 0.00 | 0.09 | 0.00 | 81 | 1019.6 |
| 20260904235804 | 61 | 251 | 1.0 | 7.0 | 0.00 | 0.09 | 0.00 | 82 | 1019.5 |
| 20260904235306 | 62 | 286 | 2.0 | 8.0 | 0.00 | 0.09 | 0.00 | 82 | 1019.5 |
| 20260904234804 | 62 | 296 | 0.0 | 5.0 | 0.00 | 0.09 | 0.00 | 82 | 1019.5 |
| 20260904233803 | 62 | 283 | 2.0 | 9.0 | 0.00 | 0.09 | 0.00 | 81 | 1019.4 |
| 20260904233304 | 62 | 293 | 1.0 | 8.0 | 0.00 | 0.09 | 0.00 | 81 | 1019.4 |
| 20260904232803 | 62 | 273 | 3.0 | 12.0 | 0.00 | 0.09 | 0.00 | 81 | 1019.3 |
| 20260904232306 | 62 | 294 | 1.0 | 9.0 | 0.00 | 0.09 | 0.00 | 81 | 1019.3 |
| 20260904231804 | 62 | 240 | 2.0 | 10.0 | 0.00 | 0.09 | 0.00 | 81 | 1019.3 |
| 20260904231304 | 62 | 271 | 3.0 | 9.0 | 0.00 | 0.09 | 0.00 | 81 | 1019.3 |
| 20260904230810 | 62 | 270 | 2.0 | 9.0 | 0.00 | 0.09 | 0.00 | 80 | 1019.3 |
| 20260904230304 | 62 | 268 | 5.0 | 12.0 | 0.00 | 0.09 | 0.00 | 80 | 1019.3 |
| 20260904225804 | 62 | 259 | 5.0 | 10.0 | 0.00 | 0.09 | 0.09 | 81 | 1019.3 |
| 20260904225305 | 62 | 267 | 1.0 | 7.0 | 0.00 | 0.09 | 0.09 | 81 | 1019.3 |
| 20260904224804 | 62 | 267 | 4.0 | 10.0 | 0.00 | 0.09 | 0.09 | 81 | 1019.2 |
| 20260904224304 | 62 | 268 | 5.0 | 12.0 | 0.00 | 0.09 | 0.09 | 81 | 1019.2 |
| 20260904223804 | 62 | 269 | 1.0 | 10.0 | 0.00 | 0.09 | 0.09 | 80 | 1019.2 |
| 20260904223304 | 62 | 271 | 2.0 | 10.0 | 0.00 | 0.09 | 0.09 | 80 | 1019.0 |
| 20260904222804 | 62 | 274 | 4.0 | 12.0 | 0.00 | 0.09 | 0.09 | 80 | 1019.1 |
| 20260904222306 | 62 | 266 | 3.0 | 12.0 | 0.00 | 0.09 | 0.09 | 80 | 1019.1 |
| 20260904221803 | 62 | 272 | 3.0 | 8.0 | 0.00 | 0.09 | 0.09 | 79 | 1019.1 |
| 20260904221304 | 63 | 271 | 3.0 | 12.0 | 0.00 | 0.09 | 0.09 | 79 | 1019.1 |
| 20260904220803 | 63 | 264 | 2.0 | 9.0 | 0.00 | 0.09 | 0.09 | 79 | 1019.1 |
| 20260904220303 | 63 | 269 | 1.0 | 8.0 | 0.00 | 0.09 | 0.09 | 79 | 1019.0 |
| 20260904215804 | 63 | 270 | 4.0 | 10.0 | 0.00 | 0.09 | 0.09 | 79 | 1019.0 |
| 20260904215305 | 63 | 244 | 1.0 | 13.0 | 0.00 | 0.09 | 0.09 | 78 | 1018.9 |
| 20260904214804 | 63 | 274 | 6.0 | 12.0 | 0.00 | 0.09 | 0.09 | 79 | 1018.9 |
| 20260904214304 | 63 | 279 | 2.0 | 13.0 | 0.00 | 0.09 | 0.09 | 79 | 1018.9 |
| 20260904213804 | 63 | 268 | 2.0 | 8.0 | 0.00 | 0.09 | 0.09 | 79 | 1018.8 |
| 20260904213304 | 63 | 262 | 5.0 | 10.0 | 0.00 | 0.09 | 0.09 | 79 | 1018.8 |
| 20260904212803 | 63 | 261 | 5.0 | 12.0 | 0.00 | 0.09 | 0.09 | 79 | 1018.8 |
| 20260904212306 | 63 | 263 | 6.0 | 13.0 | 0.00 | 0.09 | 0.09 | 79 | 1018.7 |
| 20260904211804 | 63 | 266 | 5.0 | 10.0 | 0.00 | 0.09 | 0.09 | 79 | 1018.7 |
| 20260904211304 | 63 | 279 | 2.0 | 12.0 | 0.00 | 0.09 | 0.09 | 79 | 1018.6 |
| 20260904210804 | 63 | 265 | 3.0 | 10.0 | 0.00 | 0.09 | 0.09 | 78 | 1018.6 |
| 20260904210304 | 63 | 277 | 6.0 | 14.0 | 0.00 | 0.09 | 0.09 | 78 | 1018.6 |
| 20260904205804 | 63 | 266 | 5.0 | 12.0 | 0.00 | 0.09 | 0.09 | 78 | 1018.6 |
| 20260904204803 | 63 | 271 | 3.0 | 12.0 | 0.00 | 0.09 | 0.09 | 78 | 1018.5 |
| 20260904204303 | 63 | 264 | 6.0 | 12.0 | 0.00 | 0.09 | 0.09 | 78 | 1018.4 |
| 20260904203804 | 63 | 273 | 1.0 | 12.0 | 0.00 | 0.09 | 0.09 | 78 | 1018.5 |
| 20260904203304 | 63 | 265 | 4.0 | 13.0 | 0.00 | 0.09 | 0.09 | 78 | 1018.5 |
| 20260904202804 | 63 | 255 | 5.0 | 12.0 | 0.00 | 0.09 | 0.09 | 78 | 1018.5 |
| 20260904202306 | 63 | 270 | 3.0 | 12.0 | 0.00 | 0.09 | 0.09 | 78 | 1018.4 |
| 20260904201805 | 63 | 272 | 2.0 | 10.0 | 0.00 | 0.09 | 0.09 | 78 | 1018.4 |
| 20260904201305 | 63 | 268 | 6.0 | 13.0 | 0.00 | 0.09 | 0.09 | 78 | 1018.4 |
| 20260904200805 | 63 | 271 | 1.0 | 9.0 | 0.00 | 0.09 | 0.09 | 78 | 1018.3 |
| 20260904200306 | 64 | 278 | 2.0 | 8.0 | 0.00 | 0.09 | 0.09 | 78 | 1018.2 |
| 20260904195805 | 64 | 275 | 5.0 | 12.0 | 0.00 | 0.09 | 0.09 | 78 | 1018.2 |
| 20260904195306 | 64 | 262 | 3.0 | 12.0 | 0.00 | 0.09 | 0.09 | 77 | 1018.1 |
| 20260904194805 | 64 | 278 | 3.0 | 12.0 | 0.00 | 0.09 | 0.09 | 77 | 1018.0 |
| 20260904194305 | 64 | 283 | 2.0 | 7.0 | 0.00 | 0.09 | 0.09 | 77 | 1017.9 |